createdAt,value
2023-02-12T00:05:02.379Z,33
2023-02-12T00:10:39.600Z,33
2023-02-12T00:21:23.840Z,32.9
2023-02-12T00:27:02.316Z,32.9
2023-02-12T00:38:04.480Z,32.8
2023-02-12T00:43:42.007Z,32.8
2023-02-12T00:49:20.186Z,32.8
2023-02-12T00:55:00.935Z,32.7
2023-02-12T01:00:37.909Z,32.7
2023-02-12T01:06:16.481Z,32.7
2023-02-12T01:11:53.374Z,32.6
2023-02-12T01:17:31.645Z,32.6
2023-02-12T01:28:33.138Z,32.5
2023-02-12T01:34:12.201Z,32.5
2023-02-12T01:39:53.656Z,32.4
2023-02-12T01:45:30.611Z,32.4
2023-02-12T01:51:08.625Z,32.4
2023-02-12T01:56:46.805Z,32.4
2023-02-12T02:02:24.438Z,32.3
2023-02-12T02:08:02.470Z,32.3
2023-02-12T02:13:24.967Z,32.3
2023-02-12T02:19:02.412Z,32.3
2023-02-12T02:24:40.200Z,32.2
2023-02-12T02:30:16.829Z,32.2
2023-02-12T02:35:55.232Z,32.1
2023-02-12T02:41:47.085Z,32.1
2023-02-12T02:47:24.690Z,32.1
2023-02-12T02:53:02.646Z,32
2023-02-12T03:03:48.490Z,32
2023-02-12T03:09:26.790Z,31.9
2023-02-12T03:15:04.718Z,31.9
2023-02-12T03:20:42.150Z,31.9
2023-02-12T03:26:03.538Z,31.9
2023-02-12T03:31:25.609Z,31.8
2023-02-12T03:37:02.473Z,31.8
2023-02-12T03:42:39.886Z,31.8
2023-02-12T03:48:17.358Z,31.8
2023-02-12T03:53:54.485Z,31.7
2023-02-12T03:59:31.839Z,31.7
2023-02-12T04:05:10.626Z,31.6
2023-02-12T04:10:46.582Z,31.6
2023-02-12T04:16:24.806Z,31.6
2023-02-12T04:22:04.112Z,31.5
2023-02-12T04:27:41.466Z,31.5
2023-02-12T04:33:20.640Z,31.4
2023-02-12T04:44:18.397Z,31.4
2023-02-12T04:49:56.220Z,31.4
2023-02-12T04:55:33.117Z,31.4
2023-02-12T05:01:10.012Z,31.3
2023-02-12T05:06:52.047Z,31.3
2023-02-12T05:12:12.924Z,31.3
2023-02-12T05:17:50.211Z,31.3
2023-02-12T05:23:12.602Z,31.2
2023-02-12T05:28:34.484Z,31.2
2023-02-12T05:34:12.335Z,31.1
2023-02-12T05:39:50.659Z,31.1
2023-02-12T05:45:12.534Z,31.1
2023-02-12T05:50:33.457Z,31.1
2023-02-12T05:56:13.514Z,31
2023-02-12T06:01:50.847Z,30.9
2023-02-12T06:07:28.032Z,30.9
2023-02-12T06:12:49.191Z,30.9
2023-02-12T06:23:50.239Z,30.9
2023-02-12T06:29:12.025Z,30.8
2023-02-12T06:34:49.572Z,30.8
2023-02-12T06:40:26.869Z,30.8
2023-02-12T06:45:48.380Z,30.8
2023-02-12T06:51:26.593Z,30.8
2023-02-12T06:56:51.455Z,30.7
2023-02-12T07:02:29.626Z,30.7
2023-02-12T07:07:51.993Z,30.6
2023-02-12T07:13:01.633Z,30.6
2023-02-12T07:18:23.570Z,30.6
2023-02-12T07:23:29.384Z,30.6
2023-02-12T07:28:39.548Z,30.5
2023-02-12T07:34:16.769Z,30.5
2023-02-12T07:39:54.106Z,30.4
2023-02-12T07:45:15.188Z,30.4
2023-02-12T07:50:52.359Z,30.4
2023-02-12T07:56:14.888Z,30.4
2023-02-12T08:01:36.100Z,30.4
2023-02-12T08:07:13.684Z,30.3
2023-02-12T08:12:51.381Z,30.3
2023-02-12T08:18:29.366Z,30.3
2023-02-12T08:24:20.490Z,30.3
2023-02-12T08:29:58.440Z,30.2
2023-02-12T08:35:36.429Z,30.2
2023-02-12T08:41:13.982Z,30.2
2023-02-12T08:46:35.696Z,30.1
2023-02-12T08:51:57.997Z,30.1
2023-02-12T08:57:35.364Z,30.1
2023-02-12T09:03:13.191Z,30.1
2023-02-12T09:08:50.089Z,30.1
2023-02-12T09:14:11.114Z,30
2023-02-12T09:19:49.302Z,29.9
2023-02-12T09:25:27.378Z,29.9
2023-02-12T09:31:04.072Z,29.9
2023-02-12T09:36:26.872Z,29.9
2023-02-12T09:41:48.827Z,29.9
2023-02-12T09:47:27.514Z,29.8
2023-02-12T09:53:04.418Z,29.8
2023-02-12T09:58:44.621Z,29.8
2023-02-12T10:04:28.890Z,29.8
2023-02-12T10:10:06.972Z,29.8
2023-02-12T10:15:46.145Z,29.7
2023-02-12T10:21:24.942Z,29.6
2023-02-12T10:27:10.723Z,29.6
2023-02-12T10:32:36.008Z,29.6
2023-02-12T10:37:57.721Z,29.6
2023-02-12T10:43:35.308Z,29.6
2023-02-12T10:49:14.201Z,29.6
2023-02-12T10:54:52.827Z,29.5
2023-02-12T11:00:31.207Z,29.5
2023-02-12T11:06:09.391Z,29.4
2023-02-12T11:11:46.109Z,29.4
2023-02-12T11:17:25.446Z,29.4
2023-02-12T11:23:04.052Z,29.4
2023-02-12T11:28:42.362Z,29.4
2023-02-12T11:34:05.615Z,29.3
2023-02-12T11:39:46.776Z,29.3
2023-02-12T11:45:24.000Z,29.3
2023-02-12T11:56:07.867Z,29.3
2023-02-12T12:01:30.062Z,29.3
2023-02-12T12:07:07.762Z,29.2
2023-02-12T12:12:46.268Z,29.2
2023-02-12T12:18:09.099Z,29.1
2023-02-12T12:23:45.947Z,29.1
2023-02-12T12:29:22.840Z,29.1
2023-02-12T12:34:44.851Z,29.1
2023-02-12T12:40:20.925Z,29.1
2023-02-12T12:45:59.569Z,29
2023-02-12T12:51:37.504Z,29
2023-02-12T12:56:59.572Z,28.9
2023-02-12T13:02:37.960Z,28.9
2023-02-12T13:08:16.638Z,28.9
2023-02-12T13:13:53.989Z,28.9
2023-02-12T13:19:31.619Z,28.9
2023-02-12T13:24:54.628Z,28.8
2023-02-12T13:30:34.156Z,28.8
2023-02-12T13:36:20.288Z,28.8
2023-02-12T13:41:29.806Z,28.8
2023-02-12T13:46:52.510Z,28.8
2023-02-12T13:52:15.033Z,28.6
2023-02-12T13:57:37.034Z,28.6
2023-02-12T14:02:59.849Z,28.5
2023-02-12T14:08:23.466Z,28.5
2023-02-12T14:13:47.635Z,28.4
2023-02-12T14:19:11.836Z,28.4
2023-02-12T14:24:34.826Z,28.4
2023-02-12T14:29:56.897Z,28.4
2023-02-12T14:35:04.682Z,28.4
2023-02-12T14:40:25.535Z,28.3
2023-02-12T14:45:47.177Z,28.3
2023-02-12T14:51:09.874Z,28.3
2023-02-12T14:56:32.380Z,28.3
2023-02-12T15:01:55.609Z,28.4
2023-02-12T15:07:32.984Z,28.5
2023-02-12T15:12:40.279Z,28.3
2023-02-12T15:18:17.923Z,28.2
2023-02-12T15:23:55.775Z,28.1
2023-02-12T15:29:33.029Z,28.1
2023-02-12T15:35:14.025Z,28
2023-02-12T15:46:06.739Z,27.9
2023-02-12T15:51:44.287Z,27.9
2023-02-12T16:07:37.158Z,27.7
2023-02-12T16:12:58.411Z,27.6
2023-02-12T16:18:21.501Z,27.6
2023-02-12T16:23:42.300Z,27.6
2023-02-12T16:29:20.729Z,27.6
2023-02-12T16:34:59.478Z,27.6
2023-02-12T16:40:36.320Z,27.4
2023-02-12T16:46:15.232Z,27.4
2023-02-12T16:51:53.119Z,27.4
2023-02-12T16:57:30.545Z,27.4
2023-02-12T17:02:37.995Z,27.3
2023-02-12T17:08:01.192Z,27.3
2023-02-12T17:13:24.188Z,27.3
2023-02-12T17:19:16.374Z,27.3
2023-02-12T17:24:53.985Z,27.1
2023-02-12T17:30:15.939Z,26.9
2023-02-12T17:35:53.389Z,26.9
2023-02-12T17:41:31.967Z,26.9
2023-02-12T17:47:10.216Z,26.9
2023-02-12T17:52:48.582Z,26.9
2023-02-12T17:58:25.918Z,26.9
2023-02-12T18:03:48.119Z,26.9
2023-02-12T18:09:11.122Z,26.9
2023-02-12T18:14:33.986Z,26.9
2023-02-12T18:20:10.318Z,26.9
2023-02-12T18:25:47.598Z,26.8
2023-02-12T18:31:25.867Z,26.6
2023-02-12T18:37:04.186Z,26.6
2023-02-12T18:42:26.388Z,26.7
2023-02-12T18:48:04.750Z,26.8
2023-02-12T18:53:43.464Z,26.8
2023-02-12T18:59:21.859Z,26.5
2023-02-12T19:04:45.305Z,25.8
2023-02-12T19:09:52.325Z,25.4
2023-02-12T19:15:31.029Z,24.9
2023-02-12T19:20:37.626Z,24.3
2023-02-12T19:26:40.246Z,23.9
2023-02-12T19:32:05.554Z,23.4
2023-02-12T19:37:28.330Z,22.9
2023-02-12T19:42:50.862Z,22.6
2023-02-12T19:48:14.677Z,22.1
2023-02-12T19:53:37.747Z,21.7
2023-02-12T19:58:44.363Z,21.4
2023-02-12T20:14:05.203Z,20.8
2023-02-12T20:19:12.834Z,20.7
2023-02-12T20:24:37.735Z,20.6
2023-02-12T20:29:58.856Z,20.5
2023-02-12T20:35:22.912Z,20.4
2023-02-12T20:40:51.840Z,20.3
2023-02-12T20:46:13.519Z,20.2
2023-02-12T20:51:20.571Z,20.3
2023-02-12T20:56:59.525Z,20.7
2023-02-12T21:02:20.988Z,21.2
2023-02-12T21:07:58.728Z,21.9
2023-02-12T21:19:07.669Z,23.2
2023-02-12T21:24:46.620Z,23.6
2023-02-12T21:35:48.120Z,24.1
2023-02-12T21:41:31.399Z,24.2
2023-02-12T21:46:53.991Z,24.3
2023-02-12T21:52:22.708Z,24.3
2023-02-12T21:57:58.929Z,24.3
2023-02-12T22:03:36.334Z,24.4
2023-02-12T22:09:12.027Z,24.4
2023-02-12T22:14:49.684Z,24.4
2023-02-12T22:20:27.368Z,24.4
2023-02-12T22:26:04.382Z,24.4
2023-02-12T22:36:48.442Z,24.3
2023-02-12T22:42:25.430Z,24.4
2023-02-12T22:48:04.096Z,24.4
2023-02-12T22:53:41.087Z,24.3
2023-02-12T22:59:18.135Z,24.4
2023-02-12T23:04:56.454Z,24.3
2023-02-12T23:10:48.425Z,24.3
2023-02-12T23:16:26.245Z,24.3
2023-02-12T23:21:33.701Z,24.3
2023-02-12T23:32:18.994Z,24.3
2023-02-12T23:37:40.377Z,24.3
2023-02-12T23:48:24.195Z,24.3
2023-02-12T23:53:46.589Z,24.2
2023-02-12T23:59:15.602Z,24.2
